Gil Vicente — CSKG — position and weather

sailwx.info

Track history (hours):
 
Tides and Currents Weather Stations Pressure Air Temp Water Temp Dewpoint Dewpoint Depression Visibility Wind Speed Wind Dir Waves Ship Positions

Gil Vicente

Last reported at 2014-Nov-21 18:16 UTC. Time now 2014-Nov-23 06:06 UTC.
Position N 38°39' W 009°05'.

Length 49 m.

Type: Passenger vessel. MMSI: 263701390.

Date/timePositionNaut miles runAvg speedWind from/ knotsBaromVisibWave heightAir tempDewpointWater temp
2014-Nov-21 18:16N 38°39' W 009°05'2 2.8
2014-Nov-21 17:33N 38°40' W 009°07'1 1.3
2014-Nov-21 16:34N 38°39' W 009°06'1 1.0
2014-Nov-21 15:33N 38°40' W 009°07'2 1.7
2014-Nov-21 14:34N 38°39' W 009°05'0 0.0
2014-Nov-21 11:11N 38°39' W 009°05'0 0.0
2014-Nov-21 10:34N 38°39' W 009°05'4 4.0
2014-Nov-21 09:33N 38°42' W 009°08'0 0.0
2014-Nov-21 08:34N 38°42' W 009°08'3 2.5
2014-Nov-21 07:34N 38°40' W 009°07'2 1.8
2014-Nov-21 06:33N 38°39' W 009°05'4 0.3
2014-Nov-20 19:33N 38°42' W 009°08'0 0.4
2014-Nov-20 18:33N 38°42' W 009°08'2 2.4
2014-Nov-20 17:34N 38°40' W 009°07'1 1.4
2014-Nov-20 16:34N 38°39' W 009°06'1 0.8
2014-Nov-20 15:33N 38°40' W 009°06'2 0.4
2014-Nov-20 11:22N 38°39' W 009°05'2 2.0
2014-Nov-20 10:33N 38°40' W 009°07'0 0.3
2014-Nov-20 09:33N 38°40' W 009°06'0 0.4
2014-Nov-20 08:33N 38°40' W 009°07'2 1.8
2014-Nov-20 07:34N 38°39' W 009°05'0 0.0
2014-Nov-20 06:34N 38°39' W 009°05'0 0.1
2014-Nov-20 05:33N 38°39' W 009°05'0 0.0
2014-Nov-20 04:33N 38°39' W 009°05'0 0.0
2014-Nov-20 03:33N 38°39' W 009°05'0 0.0
2014-Nov-20 02:34N 38°39' W 009°05'0 0.0
2014-Nov-20 01:34N 38°39' W 009°05'0 0.0
2014-Nov-20 00:33N 38°39' W 009°05'4 3.8
2014-Nov-19 23:33N 38°42' W 009°08'1 1.1
2014-Nov-19 22:33N 38°41' W 009°08'0 0.1
2014-Nov-19 21:33N 38°41' W 009°08'3 2.9
2014-Nov-19 20:33N 38°39' W 009°05'1 0.8
2014-Nov-19 19:34N 38°39' W 009°06'1 0.8
2014-Nov-19 18:33N 38°39' W 009°05'1 1.0
2014-Nov-19 17:34N 38°39' W 009°06'1 0.9
2014-Nov-19 16:34N 38°39' W 009°05'0 0.0
2014-Nov-19 09:11N 38°39' W 009°05'0 0.1
2014-Nov-19 08:34N 38°39' W 009°05'0 0.3
2014-Nov-19 07:33N 38°39' W 009°05'0 0.0
2014-Nov-19 06:33N 38°39' W 009°05'4 0.4
2014-Nov-18 20:34N 38°42' W 009°08'0 0.3
2014-Nov-18 19:33N 38°42' W 009°08'1 0.5
2014-Nov-18 18:34N 38°42' W 009°08'3 3.3
2014-Nov-18 17:33N 38°39' W 009°05'4 3.7
2014-Nov-18 16:34N 38°42' W 009°08'1 1.3
2014-Nov-18 15:33N 38°41' W 009°08'0 0.1
2014-Nov-18 14:33N 38°41' W 009°08'0 0.1
2014-Nov-18 13:33N 38°41' W 009°08'0 0.2
2014-Nov-18 12:33N 38°41' W 009°08'0 0.2
2014-Nov-18 11:34N 38°41' W 009°08'3 2.7
2014-Nov-18 10:34N 38°39' W 009°05'4 4.1
2014-Nov-18 09:33N 38°42' W 009°08'0 0.0
2014-Nov-18 08:34N 38°42' W 009°08'2 2.0
2014-Nov-18 07:34N 38°40' W 009°07'2 2.4
2014-Nov-18 06:33N 38°39' W 009°05'4 0.3
2014-Nov-17 19:33N 38°42' W 009°08'0 0.4
2014-Nov-17 18:33N 38°42' W 009°08'2 2.3
2014-Nov-17 17:33N 38°40' W 009°07'1 1.5
2014-Nov-17 16:34N 38°39' W 009°06'1 0.6
2014-Nov-17 15:34N 38°40' W 009°06'1 1.2
2014-Nov-17 14:34N 38°39' W 009°05'3 0.7
2014-Nov-17 10:33N 38°41' W 009°08'3 2.7
2014-Nov-17 09:33N 38°39' W 009°05'1 1.2
2014-Nov-17 08:34N 38°40' W 009°06'3 2.6
2014-Nov-17 07:34N 38°42' W 009°08'1 0.6
2014-Nov-17 06:34N 38°42' W 009°08'0 0.0
2014-Nov-17 05:34N 38°42' W 009°08'4 1.3
2014-Nov-17 02:23N 38°39' W 009°05'0 0.4
2014-Nov-17 01:33N 38°39' W 009°05'0 0.1
2014-Nov-17 00:34N 38°39' W 009°05'0 0.1
2014-Nov-16 23:33N 38°39' W 009°05'1 1.3
2014-Nov-16 22:33N 38°40' W 009°07'0 0.3
2014-Nov-16 21:34N 38°40' W 009°06'0 0.1
2014-Nov-16 20:33N 38°40' W 009°07'1 0.8
2014-Nov-16 19:34N 38°40' W 009°07'1 0.6
2014-Nov-16 18:33N 38°41' W 009°08'0 0.0
2014-Nov-16 17:33N 38°41' W 009°08'0 0.1
2014-Nov-16 16:33N 38°41' W 009°08'0 0.2
2014-Nov-16 15:33N 38°41' W 009°08'3 3.0
2014-Nov-16 14:34N 38°39' W 009°05'0 0.0
2014-Nov-16 13:34N 38°39' W 009°05'1 1.4
2014-Nov-16 12:34N 38°40' W 009°06'0 0.3
2014-Nov-16 11:34N 38°40' W 009°06'1 1.0
2014-Nov-16 10:33N 38°39' W 009°05'4 0.1
2014-Nov-14 20:33N 38°42' W 009°08'1 0.5
2014-Nov-14 19:34N 38°42' W 009°08'1 1.1
2014-Nov-14 18:33N 38°41' W 009°08'3 3.0
2014-Nov-14 17:33N 38°39' W 009°05'4 3.7
2014-Nov-14 16:33N 38°42' W 009°08'1 1.3
2014-Nov-14 15:33N 38°41' W 009°08'0 0.1
2014-Nov-14 14:33N 38°41' W 009°08'0 0.0
2014-Nov-14 12:33N 38°41' W 009°08'0 0.2
2014-Nov-14 11:34N 38°41' W 009°08'3 2.8
2014-Nov-14 10:33N 38°39' W 009°05'4 4.1
2014-Nov-14 09:33N 38°42' W 009°08'0 0.0
2014-Nov-14 08:33N 38°42' W 009°08'1 1.1
2014-Nov-14 07:34N 38°41' W 009°08'3 3.1
2014-Nov-14 06:33N 38°39' W 009°05'4 0.3
2014-Nov-13 19:34N 38°42' W 009°08'0 0.3
2014-Nov-13 18:33N 38°42' W 009°08'2 2.4
2014-Nov-13 17:34N 38°40' W 009°07'2 1.8
2014-Nov-13 16:33N 38°39' W 009°05'1 0.9
2014-Nov-13 15:34N 38°40' W 009°06'1 1.2
2014-Nov-13 14:33N 38°39' W 009°05'0 0.0
2014-Nov-13 13:33N 38°39' W 009°05'0 0.0
2014-Nov-13 12:33N 38°39' W 009°05'0 0.0
2014-Nov-13 11:33N 38°39' W 009°05'0 0.1
2014-Nov-13 10:33N 38°39' W 009°05'2 1.6
2014-Nov-13 09:33N 38°40' W 009°06'0 0.3
2014-Nov-13 08:34N 38°40' W 009°07'2 1.9
2014-Nov-13 07:34N 38°39' W 009°05'0 0.0
2014-Nov-13 06:33N 38°39' W 009°05'0 0.0
2014-Nov-13 05:33N 38°39' W 009°05'4 0.6
2014-Nov-12 23:34N 38°42' W 009°07'1 1.4
2014-Nov-12 22:33N 38°41' W 009°08'0 0.1
2014-Nov-12 21:33N 38°41' W 009°08'3 2.9
2014-Nov-12 20:33N 38°39' W 009°05'0 0.3
2014-Nov-12 19:33N 38°39' W 009°05'0 0.3
2014-Nov-12 18:33N 38°39' W 009°05'1 1.5
2014-Nov-12 17:34N 38°40' W 009°06'1 1.4
2014-Nov-12 16:33N 38°39' W 009°05'0 0.0
2014-Nov-12 09:34N 38°39' W 009°05'0 0.3
2014-Nov-12 08:33N 38°39' W 009°05'0 0.4
2014-Nov-12 07:33N 38°39' W 009°05'0 0.0
2014-Nov-12 06:34N 38°39' W 009°05'0 0.0
2014-Nov-11 21:33N 38°39' W 009°05'0 0.0
2014-Nov-11 20:33N 38°39' W 009°05'4 3.9
2014-Nov-11 19:34N 38°42' W 009°08'2 2.2
2014-Nov-11 18:34N 38°40' W 009°07'  
Track history (hours):
 
Tides and Currents Weather Stations Pressure Air Temp Water Temp Dewpoint Dewpoint Depression Visibility Wind Speed Wind Dir Waves Ship Positions

Gil Vicente

Last reported at 2014-Nov-21 18:16 UTC. Time now 2014-Nov-23 06:06 UTC.
Position N 38°39' W 009°05'.

Length 49 m.

Type: Passenger vessel. MMSI: 263701390.

Date/timePositionNaut miles runAvg speedWind from/ knotsBaromVisibWave heightAir tempDewpointWater temp
2014-Nov-21 18:16N 38°39' W 009°05'2 2.8
2014-Nov-21 17:33N 38°40' W 009°07'1 1.3
2014-Nov-21 16:34N 38°39' W 009°06'1 1.0
2014-Nov-21 15:33N 38°40' W 009°07'2 1.7
2014-Nov-21 14:34N 38°39' W 009°05'0 0.0
2014-Nov-21 11:11N 38°39' W 009°05'0 0.0
2014-Nov-21 10:34N 38°39' W 009°05'4 4.0
2014-Nov-21 09:33N 38°42' W 009°08'0 0.0
2014-Nov-21 08:34N 38°42' W 009°08'3 2.5
2014-Nov-21 07:34N 38°40' W 009°07'2 1.8
2014-Nov-21 06:33N 38°39' W 009°05'4 0.3
2014-Nov-20 19:33N 38°42' W 009°08'0 0.4
2014-Nov-20 18:33N 38°42' W 009°08'2 2.4
2014-Nov-20 17:34N 38°40' W 009°07'1 1.4
2014-Nov-20 16:34N 38°39' W 009°06'1 0.8
2014-Nov-20 15:33N 38°40' W 009°06'2 0.4
2014-Nov-20 11:22N 38°39' W 009°05'2 2.0
2014-Nov-20 10:33N 38°40' W 009°07'0 0.3
2014-Nov-20 09:33N 38°40' W 009°06'0 0.4
2014-Nov-20 08:33N 38°40' W 009°07'2 1.8
2014-Nov-20 07:34N 38°39' W 009°05'0 0.0
2014-Nov-20 06:34N 38°39' W 009°05'0 0.1
2014-Nov-20 05:33N 38°39' W 009°05'0 0.0
2014-Nov-20 04:33N 38°39' W 009°05'0 0.0
2014-Nov-20 03:33N 38°39' W 009°05'0 0.0
2014-Nov-20 02:34N 38°39' W 009°05'0 0.0
2014-Nov-20 01:34N 38°39' W 009°05'0 0.0
2014-Nov-20 00:33N 38°39' W 009°05'4 3.8
2014-Nov-19 23:33N 38°42' W 009°08'1 1.1
2014-Nov-19 22:33N 38°41' W 009°08'0 0.1
2014-Nov-19 21:33N 38°41' W 009°08'3 2.9
2014-Nov-19 20:33N 38°39' W 009°05'1 0.8
2014-Nov-19 19:34N 38°39' W 009°06'1 0.8
2014-Nov-19 18:33N 38°39' W 009°05'1 1.0
2014-Nov-19 17:34N 38°39' W 009°06'1 0.9
2014-Nov-19 16:34N 38°39' W 009°05'0 0.0
2014-Nov-19 09:11N 38°39' W 009°05'0 0.1
2014-Nov-19 08:34N 38°39' W 009°05'0 0.3
2014-Nov-19 07:33N 38°39' W 009°05'0 0.0
2014-Nov-19 06:33N 38°39' W 009°05'4 0.4
2014-Nov-18 20:34N 38°42' W 009°08'0 0.3
2014-Nov-18 19:33N 38°42' W 009°08'1 0.5
2014-Nov-18 18:34N 38°42' W 009°08'3 3.3
2014-Nov-18 17:33N 38°39' W 009°05'4 3.7
2014-Nov-18 16:34N 38°42' W 009°08'1 1.3
2014-Nov-18 15:33N 38°41' W 009°08'0 0.1
2014-Nov-18 14:33N 38°41' W 009°08'0 0.1
2014-Nov-18 13:33N 38°41' W 009°08'0 0.2
2014-Nov-18 12:33N 38°41' W 009°08'0 0.2
2014-Nov-18 11:34N 38°41' W 009°08'3 2.7
2014-Nov-18 10:34N 38°39' W 009°05'4 4.1
2014-Nov-18 09:33N 38°42' W 009°08'0 0.0
2014-Nov-18 08:34N 38°42' W 009°08'2 2.0
2014-Nov-18 07:34N 38°40' W 009°07'2 2.4
2014-Nov-18 06:33N 38°39' W 009°05'4 0.3
2014-Nov-17 19:33N 38°42' W 009°08'0 0.4
2014-Nov-17 18:33N 38°42' W 009°08'2 2.3
2014-Nov-17 17:33N 38°40' W 009°07'1 1.5
2014-Nov-17 16:34N 38°39' W 009°06'1 0.6
2014-Nov-17 15:34N 38°40' W 009°06'1 1.2
2014-Nov-17 14:34N 38°39' W 009°05'3 0.7
2014-Nov-17 10:33N 38°41' W 009°08'3 2.7
2014-Nov-17 09:33N 38°39' W 009°05'1 1.2
2014-Nov-17 08:34N 38°40' W 009°06'3 2.6
2014-Nov-17 07:34N 38°42' W 009°08'1 0.6
2014-Nov-17 06:34N 38°42' W 009°08'0 0.0
2014-Nov-17 05:34N 38°42' W 009°08'4 1.3
2014-Nov-17 02:23N 38°39' W 009°05'0 0.4
2014-Nov-17 01:33N 38°39' W 009°05'0 0.1
2014-Nov-17 00:34N 38°39' W 009°05'0 0.1
2014-Nov-16 23:33N 38°39' W 009°05'1 1.3
2014-Nov-16 22:33N 38°40' W 009°07'0 0.3
2014-Nov-16 21:34N 38°40' W 009°06'0 0.1
2014-Nov-16 20:33N 38°40' W 009°07'1 0.8
2014-Nov-16 19:34N 38°40' W 009°07'1 0.6
2014-Nov-16 18:33N 38°41' W 009°08'0 0.0
2014-Nov-16 17:33N 38°41' W 009°08'0 0.1
2014-Nov-16 16:33N 38°41' W 009°08'0 0.2
2014-Nov-16 15:33N 38°41' W 009°08'3 3.0
2014-Nov-16 14:34N 38°39' W 009°05'0 0.0
2014-Nov-16 13:34N 38°39' W 009°05'1 1.4
2014-Nov-16 12:34N 38°40' W 009°06'0 0.3
2014-Nov-16 11:34N 38°40' W 009°06'1 1.0
2014-Nov-16 10:33N 38°39' W 009°05'4 0.1
2014-Nov-14 20:33N 38°42' W 009°08'1 0.5
2014-Nov-14 19:34N 38°42' W 009°08'1 1.1
2014-Nov-14 18:33N 38°41' W 009°08'3 3.0
2014-Nov-14 17:33N 38°39' W 009°05'4 3.7
2014-Nov-14 16:33N 38°42' W 009°08'1 1.3
2014-Nov-14 15:33N 38°41' W 009°08'0 0.1
2014-Nov-14 14:33N 38°41' W 009°08'0 0.0
2014-Nov-14 12:33N 38°41' W 009°08'0 0.2
2014-Nov-14 11:34N 38°41' W 009°08'3 2.8
2014-Nov-14 10:33N 38°39' W 009°05'4 4.1
2014-Nov-14 09:33N 38°42' W 009°08'0 0.0
2014-Nov-14 08:33N 38°42' W 009°08'1 1.1
2014-Nov-14 07:34N 38°41' W 009°08'3 3.1
2014-Nov-14 06:33N 38°39' W 009°05'4 0.3
2014-Nov-13 19:34N 38°42' W 009°08'0 0.3
2014-Nov-13 18:33N 38°42' W 009°08'2 2.4
2014-Nov-13 17:34N 38°40' W 009°07'2 1.8
2014-Nov-13 16:33N 38°39' W 009°05'1 0.9
2014-Nov-13 15:34N 38°40' W 009°06'1 1.2
2014-Nov-13 14:33N 38°39' W 009°05'0 0.0
2014-Nov-13 13:33N 38°39' W 009°05'0 0.0
2014-Nov-13 12:33N 38°39' W 009°05'0 0.0
2014-Nov-13 11:33N 38°39' W 009°05'0 0.1
2014-Nov-13 10:33N 38°39' W 009°05'2 1.6
2014-Nov-13 09:33N 38°40' W 009°06'0 0.3
2014-Nov-13 08:34N 38°40' W 009°07'2 1.9
2014-Nov-13 07:34N 38°39' W 009°05'0 0.0
2014-Nov-13 06:33N 38°39' W 009°05'0 0.0
2014-Nov-13 05:33N 38°39' W 009°05'4 0.6
2014-Nov-12 23:34N 38°42' W 009°07'1 1.4
2014-Nov-12 22:33N 38°41' W 009°08'0 0.1
2014-Nov-12 21:33N 38°41' W 009°08'3 2.9
2014-Nov-12 20:33N 38°39' W 009°05'0 0.3
2014-Nov-12 19:33N 38°39' W 009°05'0 0.3
2014-Nov-12 18:33N 38°39' W 009°05'1 1.5
2014-Nov-12 17:34N 38°40' W 009°06'1 1.4
2014-Nov-12 16:33N 38°39' W 009°05'0 0.0
2014-Nov-12 09:34N 38°39' W 009°05'0 0.3
2014-Nov-12 08:33N 38°39' W 009°05'0 0.4
2014-Nov-12 07:33N 38°39' W 009°05'0 0.0
2014-Nov-12 06:34N 38°39' W 009°05'0 0.0
2014-Nov-11 21:33N 38°39' W 009°05'0 0.0
2014-Nov-11 20:33N 38°39' W 009°05'4 3.9
2014-Nov-11 19:34N 38°42' W 009°08'2 2.2
2014-Nov-11 18:34N 38°40' W 009°07'  

Dump ship's entire track history